Time;durP1;ratioP1;P1;durP2;ratioP2;P2;SDS_P1;SDS_P2;PMS_P1;PMS_P2;Temp;Humidity;BMP_temperature;BMP_pressure;BME280_temperature;BME280_humidity;BME280_pressure;Samples;Min_cycle;Max_cycle;Signal;HPM_P1;HPM_P2
2022/04/06 00:01:47;;;;;;;25.27;12.68;;;;;;;;;;4937108;29;20119;-73
2022/04/06 00:04:13;;;;;;;22.30;12.05;;;;;;;;;;4938320;29;20039;-73
2022/04/06 00:06:39;;;;;;;18.80;12.68;;;;;;;;;;4938244;29;20103;-68
2022/04/06 00:09:06;;;;;;;21.55;12.13;;;;;;;;;;4938094;29;20043;-73
2022/04/06 00:11:32;;;;;;;23.00;13.25;;;;;;;;;;4937911;29;20423;-69
2022/04/06 00:13:58;;;;;;;19.63;11.80;;;;;;;;;;4937755;29;20502;-72
2022/04/06 00:16:24;;;;;;;21.10;12.25;;;;;;;;;;4938035;29;20032;-69
2022/04/06 00:18:51;;;;;;;17.70;11.68;;;;;;;;;;4938099;29;20031;-69
2022/04/06 00:21:17;;;;;;;19.20;11.73;;;;;;;;;;4923840;29;20099;-75
2022/04/06 00:23:43;;;;;;;20.38;11.32;;;;;;;;;;4919112;29;20032;-73
2022/04/06 00:26:09;;;;;;;23.05;12.20;;;;;;;;;;4919713;29;20448;-71
2022/04/06 00:28:35;;;;;;;22.38;13.32;;;;;;;;;;4918992;29;20048;-71
2022/04/06 00:31:00;;;;;;;19.48;13.95;;;;;;;;;;4919054;29;20036;-75
2022/04/06 00:33:26;;;;;;;24.45;14.02;;;;;;;;;;4918881;29;20068;-75
2022/04/06 00:35:52;;;;;;;26.17;14.48;;;;;;;;;;4918823;29;20028;-70
2022/04/06 00:38:18;;;;;;;26.98;14.95;;;;;;;;;;4918860;29;20044;-70
2022/04/06 00:40:44;;;;;;;19.70;13.20;;;;;;;;;;4918999;29;20107;-70
2022/04/06 00:43:13;;;;;;;19.52;12.43;;;;;;;;;;4925396;29;20039;-68
2022/04/06 00:45:40;;;;;;;22.00;11.65;;;;;;;;;;4940964;28;20087;-74
2022/04/06 00:48:07;;;;;;;20.80;12.55;;;;;;;;;;4937205;29;20544;-73
2022/04/06 00:50:34;;;;;;;21.25;13.55;;;;;;;;;;4937655;29;20399;-70
2022/04/06 00:53:00;;;;;;;21.50;13.57;;;;;;;;;;4937774;29;20032;-72
2022/04/06 00:55:30;;;;;;;24.15;14.48;;;;;;;;;;4937326;29;20123;-69
2022/04/06 00:57:56;;;;;;;20.98;13.20;;;;;;;;;;4937387;29;20035;-72
2022/04/06 01:00:22;;;;;;;20.38;13.95;;;;;;;;;;4937403;29;20043;-69
2022/04/06 01:02:48;;;;;;;29.25;15.93;;;;;;;;;;4937248;29;20028;-69
2022/04/06 01:05:14;;;;;;;22.23;15.15;;;;;;;;;;4937128;29;20443;-69
2022/04/06 01:07:42;;;;;;;26.98;16.60;;;;;;;;;;4937022;29;20024;-69
2022/04/06 01:10:08;;;;;;;25.05;17.25;;;;;;;;;;4937122;29;20118;-70
2022/04/06 01:12:44;;;;;;;28.42;16.55;;;;;;;;;;4937266;29;20357;-69
2022/04/06 01:15:10;;;;;;;19.83;14.98;;;;;;;;;;4935532;29;20042;-72
2022/04/06 01:17:36;;;;;;;23.90;14.90;;;;;;;;;;4936848;29;20027;-75
2022/04/06 01:20:05;;;;;;;23.35;15.77;;;;;;;;;;4936910;29;20394;-73
2022/04/06 01:22:31;;;;;;;28.85;16.30;;;;;;;;;;4936993;29;20039;-69
2022/04/06 01:24:57;;;;;;;28.65;17.50;;;;;;;;;;4936778;29;20043;-72
2022/04/06 01:27:23;;;;;;;24.48;16.33;;;;;;;;;;4937044;29;20028;-69
2022/04/06 01:29:51;;;;;;;22.40;16.15;;;;;;;;;;4936951;29;20059;-70
2022/04/06 01:32:36;;;;;;;28.08;17.88;;;;;;;;;;4936794;29;20032;-70
2022/04/06 01:35:04;;;;;;;23.70;16.02;;;;;;;;;;4936784;29;20083;-72
2022/04/06 01:37:31;;;;;;;29.35;16.20;;;;;;;;;;4936818;29;20090;-69
2022/04/06 01:39:57;;;;;;;25.92;16.70;;;;;;;;;;4936337;29;20398;-68
2022/04/06 01:42:22;;;;;;;26.10;17.52;;;;;;;;;;4936494;29;20024;-71
2022/04/06 01:44:50;;;;;;;31.52;18.63;;;;;;;;;;4936142;29;20110;-68
2022/04/06 01:47:17;;;;;;;26.77;18.42;;;;;;;;;;4935964;29;20082;-70
2022/04/06 01:52:29;;;;;;;26.25;17.70;;;;;;;;;;4936498;29;20040;-69
2022/04/06 01:55:00;;;;;;;24.55;17.63;;;;;;;;;;4936264;29;20038;-67
2022/04/06 01:57:27;;;;;;;28.52;17.63;;;;;;;;;;4936240;29;20110;-70
2022/04/06 01:59:53;;;;;;;25.13;17.02;;;;;;;;;;4936388;29;20031;-68
2022/04/06 02:02:21;;;;;;;25.38;16.33;;;;;;;;;;4936237;29;20031;-72
2022/04/06 02:04:47;;;;;;;24.35;14.60;;;;;;;;;;4936414;29;20503;-68
2022/04/06 02:07:14;;;;;;;22.90;15.05;;;;;;;;;;4936257;29;20035;-74
2022/04/06 02:09:40;;;;;;;21.80;13.65;;;;;;;;;;4935953;29;20023;-69
2022/04/06 02:12:07;;;;;;;20.20;12.73;;;;;;;;;;4935873;29;20044;-72
2022/04/06 02:14:33;;;;;;;22.20;13.88;;;;;;;;;;4935586;29;20079;-70
2022/04/06 02:17:01;;;;;;;20.27;13.85;;;;;;;;;;4935566;29;20043;-72
2022/04/06 02:19:26;;;;;;;25.23;14.20;;;;;;;;;;4935768;29;20463;-73
2022/04/06 02:21:53;;;;;;;19.63;13.85;;;;;;;;;;4935892;29;20537;-72
2022/04/06 02:24:18;;;;;;;19.10;12.55;;;;;;;;;;4935599;29;20035;-72
2022/04/06 02:26:45;;;;;;;17.98;12.85;;;;;;;;;;4935694;29;20086;-74
2022/04/06 02:29:12;;;;;;;22.67;13.52;;;;;;;;;;4935525;29;20075;-72
2022/04/06 02:31:38;;;;;;;22.33;12.60;;;;;;;;;;4935463;29;20115;-71
2022/04/06 02:34:04;;;;;;;18.65;12.90;;;;;;;;;;4935381;29;20031;-69
2022/04/06 02:36:30;;;;;;;23.92;13.88;;;;;;;;;;4934820;29;20047;-74
2022/04/06 02:38:56;;;;;;;30.58;14.80;;;;;;;;;;4935192;29;20024;-73
2022/04/06 02:41:22;;;;;;;22.23;13.40;;;;;;;;;;4935099;29;20391;-77
2022/04/06 02:43:47;;;;;;;31.15;14.18;;;;;;;;;;4935547;29;20031;-72
2022/04/06 02:46:13;;;;;;;21.38;14.77;;;;;;;;;;4934770;29;20371;-70
2022/04/06 02:48:39;;;;;;;27.05;15.50;;;;;;;;;;4935361;29;20028;-74
2022/04/06 02:51:05;;;;;;;21.55;13.02;;;;;;;;;;4935111;29;20040;-73
2022/04/06 02:53:31;;;;;;;23.58;13.80;;;;;;;;;;4935319;29;20127;-70
2022/04/06 02:55:57;;;;;;;21.73;14.45;;;;;;;;;;4935105;29;20032;-74
2022/04/06 02:58:23;;;;;;;26.77;13.27;;;;;;;;;;4935350;29;20370;-73
2022/04/06 03:00:49;;;;;;;22.25;14.20;;;;;;;;;;4935404;29;20083;-72
2022/04/06 03:03:15;;;;;;;21.63;14.00;;;;;;;;;;4935070;29;20046;-73
2022/04/06 03:05:41;;;;;;;22.65;14.32;;;;;;;;;;4934710;29;20045;-73
2022/04/06 03:08:07;;;;;;;22.25;15.15;;;;;;;;;;4934733;29;20024;-72
2022/04/06 03:10:33;;;;;;;24.05;14.32;;;;;;;;;;4935137;29;20080;-75
2022/04/06 03:12:59;;;;;;;29.23;15.38;;;;;;;;;;4934941;29;20055;-73
2022/04/06 03:15:25;;;;;;;27.33;15.52;;;;;;;;;;4934372;29;20042;-69
2022/04/06 03:17:51;;;;;;;23.55;14.45;;;;;;;;;;4934835;29;20028;-69
2022/04/06 03:20:17;;;;;;;25.52;14.98;;;;;;;;;;4934452;29;20143;-70
2022/04/06 03:22:43;;;;;;;23.50;14.55;;;;;;;;;;4934594;29;20472;-72
2022/04/06 03:25:09;;;;;;;28.60;15.32;;;;;;;;;;4934835;29;20038;-68
2022/04/06 03:27:36;;;;;;;30.35;16.33;;;;;;;;;;4934578;29;20047;-69
2022/04/06 03:30:06;;;;;;;29.60;16.67;;;;;;;;;;4934330;29;20395;-69
2022/04/06 03:32:32;;;;;;;34.75;16.55;;;;;;;;;;4916275;29;20036;-69
2022/04/06 03:34:58;;;;;;;27.10;16.85;;;;;;;;;;4914422;29;20036;-69
2022/04/06 03:37:24;;;;;;;32.95;16.38;;;;;;;;;;4915270;29;20048;-69
2022/04/06 03:39:50;;;;;;;25.48;15.60;;;;;;;;;;4916623;29;20105;-70
2022/04/06 03:42:16;;;;;;;26.13;15.57;;;;;;;;;;4916491;29;20035;-69
2022/04/06 03:44:43;;;;;;;25.70;14.23;;;;;;;;;;4915076;29;20036;-70
2022/04/06 03:47:09;;;;;;;31.02;16.00;;;;;;;;;;4916133;29;20063;-69
2022/04/06 03:49:34;;;;;;;40.92;15.95;;;;;;;;;;4916526;29;20473;-68
2022/04/06 03:52:00;;;;;;;30.13;16.08;;;;;;;;;;4916205;29;20095;-69
2022/04/06 03:54:26;;;;;;;28.52;15.13;;;;;;;;;;4915845;29;20042;-69
2022/04/06 03:56:52;;;;;;;32.47;16.48;;;;;;;;;;4915930;29;20044;-71
2022/04/06 03:59:18;;;;;;;25.80;14.93;;;;;;;;;;4915924;29;20024;-70
2022/04/06 04:01:44;;;;;;;34.55;16.38;;;;;;;;;;4916066;29;20466;-69
2022/04/06 04:04:10;;;;;;;28.00;18.27;;;;;;;;;;4916154;29;20102;-69
2022/04/06 04:06:39;;;;;;;28.00;16.55;;;;;;;;;;4916051;29;20123;-69
2022/04/06 04:09:05;;;;;;;26.45;16.60;;;;;;;;;;4916262;29;20035;-70
2022/04/06 04:11:31;;;;;;;31.23;17.13;;;;;;;;;;4916207;29;20446;-70
2022/04/06 04:13:58;;;;;;;33.40;16.55;;;;;;;;;;4917280;29;20036;-68
2022/04/06 04:16:23;;;;;;;26.80;16.35;;;;;;;;;;4932994;29;20032;-69
2022/04/06 04:18:49;;;;;;;34.05;17.65;;;;;;;;;;4934525;29;20435;-71
2022/04/06 04:21:34;;;;;;;36.58;18.13;;;;;;;;;;4912645;29;20032;-75
2022/04/06 04:24:01;;;;;;;30.60;18.95;;;;;;;;;;4911106;29;20040;-75
2022/04/06 04:26:28;;;;;;;35.28;18.83;;;;;;;;;;4914566;29;20025;-75
2022/04/06 04:28:54;;;;;;;35.70;19.15;;;;;;;;;;4915095;29;20099;-76
2022/04/06 04:31:20;;;;;;;38.00;20.98;;;;;;;;;;4914559;29;20048;-76
2022/04/06 04:33:46;;;;;;;38.80;20.75;;;;;;;;;;4914214;29;20504;-75
2022/04/06 04:36:12;;;;;;;35.50;20.65;;;;;;;;;;4914517;29;20063;-78
2022/04/06 04:38:38;;;;;;;40.60;19.25;;;;;;;;;;4914664;29;20032;-74
2022/04/06 04:41:06;;;;;;;39.20;20.75;;;;;;;;;;4924793;29;20031;-76
2022/04/06 04:43:32;;;;;;;28.92;17.13;;;;;;;;;;4932470;29;20130;-76
2022/04/06 04:45:59;;;;;;;48.60;20.98;;;;;;;;;;4933307;29;20114;-72
2022/04/06 04:48:25;;;;;;;34.72;19.20;;;;;;;;;;4936963;29;20114;-76
2022/04/06 04:50:51;;;;;;;34.28;18.25;;;;;;;;;;4925209;29;20111;-74
2022/04/06 04:53:17;;;;;;;33.00;18.30;;;;;;;;;;4932262;29;20035;-76
2022/04/06 04:55:43;;;;;;;36.15;17.80;;;;;;;;;;4932636;29;20039;-75
2022/04/06 04:58:09;;;;;;;48.97;17.45;;;;;;;;;;4932628;29;20040;-75
2022/04/06 05:00:35;;;;;;;39.67;18.35;;;;;;;;;;4938546;29;20119;-74
2022/04/06 05:03:02;;;;;;;31.90;17.33;;;;;;;;;;4936055;29;20044;-75
2022/04/06 05:05:29;;;;;;;44.85;18.58;;;;;;;;;;4936304;29;20028;-75
2022/04/06 05:07:57;;;;;;;42.67;18.70;;;;;;;;;;4936048;29;20036;-74
2022/04/06 05:10:23;;;;;;;38.53;17.55;;;;;;;;;;4937130;29;20031;-73
2022/04/06 05:12:49;;;;;;;31.27;17.67;;;;;;;;;;4919536;29;20044;-72
2022/04/06 05:15:15;;;;;;;33.40;16.80;;;;;;;;;;4937051;29;20118;-72
2022/04/06 05:17:41;;;;;;;45.85;17.65;;;;;;;;;;4937338;29;20376;-72
2022/04/06 05:20:10;;;;;;;35.22;16.23;;;;;;;;;;4936602;29;20078;-74
2022/04/06 05:22:36;;;;;;;48.72;17.58;;;;;;;;;;4936431;29;20071;-73
2022/04/06 05:25:04;;;;;;;39.17;16.58;;;;;;;;;;4936264;29;20067;-74
2022/04/06 05:27:52;;;;;;;40.10;15.20;;;;;;;;;;4933508;29;20075;-72
2022/04/06 05:30:20;;;;;;;29.83;13.10;;;;;;;;;;4917615;29;20392;-72
2022/04/06 05:32:48;;;;;;;20.08;12.02;;;;;;;;;;4917736;29;20036;-72
2022/04/06 05:35:16;;;;;;;25.95;13.38;;;;;;;;;;4917697;29;20051;-74
2022/04/06 05:37:43;;;;;;;25.90;12.90;;;;;;;;;;4917803;29;20119;-73
2022/04/06 05:40:11;;;;;;;24.23;12.43;;;;;;;;;;4918231;29;20064;-72
2022/04/06 05:42:37;;;;;;;27.52;11.98;;;;;;;;;;4918451;29;20083;-73
2022/04/06 05:45:04;;;;;;;27.08;9.98;;;;;;;;;;4918051;29;20491;-71
2022/04/06 05:47:30;;;;;;;22.67;10.48;;;;;;;;;;4916534;29;20039;-72
2022/04/06 05:49:56;;;;;;;17.85;10.30;;;;;;;;;;4917919;29;20423;-74
2022/04/06 05:52:22;;;;;;;25.90;11.20;;;;;;;;;;4918019;29;20032;-73
2022/04/06 05:54:48;;;;;;;19.80;9.43;;;;;;;;;;4917930;29;20110;-72
2022/04/06 05:57:13;;;;;;;21.50;10.40;;;;;;;;;;4917514;29;20043;-71
2022/04/06 05:59:40;;;;;;;24.25;10.48;;;;;;;;;;4916612;29;20036;-72
2022/04/06 06:02:09;;;;;;;31.45;11.15;;;;;;;;;;4917570;29;20387;-75
2022/04/06 06:04:35;;;;;;;20.00;10.50;;;;;;;;;;4917533;29;20087;-72
2022/04/06 06:07:01;;;;;;;25.52;11.55;;;;;;;;;;4916987;29;20051;-73
2022/04/06 06:09:29;;;;;;;25.35;10.30;;;;;;;;;;4917430;29;20036;-73
2022/04/06 06:11:55;;;;;;;23.95;11.20;;;;;;;;;;4917676;29;20364;-75
2022/04/06 06:14:21;;;;;;;23.20;10.48;;;;;;;;;;4917354;29;20043;-73
2022/04/06 06:16:49;;;;;;;27.00;12.30;;;;;;;;;;4917445;29;20547;-74
2022/04/06 06:19:15;;;;;;;21.45;10.65;;;;;;;;;;4917426;29;20051;-72
2022/04/06 06:21:43;;;;;;;25.40;10.23;;;;;;;;;;4917984;29;20068;-71
2022/04/06 06:24:09;;;;;;;19.15;10.75;;;;;;;;;;4917794;29;20032;-72
2022/04/06 06:26:42;;;;;;;22.52;10.50;;;;;;;;;;4917848;29;20028;-75
2022/04/06 06:29:08;;;;;;;17.50;10.60;;;;;;;;;;4935915;29;20101;-75
2022/04/06 06:31:34;;;;;;;18.23;10.68;;;;;;;;;;4935850;29;20164;-74
2022/04/06 06:34:00;;;;;;;19.27;11.55;;;;;;;;;;4936020;29;20542;-75
2022/04/06 06:36:27;;;;;;;17.20;11.00;;;;;;;;;;4934859;29;20487;-76
2022/04/06 06:38:54;;;;;;;20.35;11.00;;;;;;;;;;4936332;29;20122;-76
2022/04/06 06:41:21;;;;;;;18.63;10.90;;;;;;;;;;4935446;29;20024;-75
2022/04/06 06:43:50;;;;;;;23.13;9.85;;;;;;;;;;4935102;29;20043;-73
2022/04/06 06:46:20;;;;;;;19.00;10.82;;;;;;;;;;4934946;29;20117;-74
2022/04/06 06:48:47;;;;;;;23.27;11.07;;;;;;;;;;4935195;29;20468;-71
2022/04/06 06:51:14;;;;;;;19.55;10.93;;;;;;;;;;4935549;29;20027;-71
2022/04/06 06:53:40;;;;;;;25.05;11.75;;;;;;;;;;4935675;29;20031;-73
2022/04/06 06:56:06;;;;;;;20.25;11.48;;;;;;;;;;4934964;29;20438;-72
2022/04/06 06:58:32;;;;;;;27.50;11.55;;;;;;;;;;4935335;29;20090;-71
2022/04/06 07:00:58;;;;;;;24.83;11.05;;;;;;;;;;4935422;29;20032;-74
2022/04/06 07:03:24;;;;;;;20.45;10.95;;;;;;;;;;4933414;29;20056;-72
2022/04/06 07:05:50;;;;;;;21.05;11.20;;;;;;;;;;4934847;29;20032;-73
2022/04/06 07:08:16;;;;;;;18.52;10.30;;;;;;;;;;4935095;29;20384;-73
2022/04/06 07:10:46;;;;;;;22.25;11.10;;;;;;;;;;4933849;29;20059;-73
2022/04/06 07:13:18;;;;;;;18.02;9.40;;;;;;;;;;4935932;29;20065;-72
2022/04/06 07:15:44;;;;;;;19.50;9.88;;;;;;;;;;4935359;29;20479;-72
2022/04/06 07:18:11;;;;;;;14.25;9.30;;;;;;;;;;4933985;29;20035;-71
2022/04/06 07:20:37;;;;;;;12.65;9.65;;;;;;;;;;4934955;29;20099;-74
2022/04/06 07:23:04;;;;;;;16.30;9.88;;;;;;;;;;4935108;29;20051;-72
2022/04/06 07:25:31;;;;;;;17.17;10.27;;;;;;;;;;4933922;29;20044;-71
2022/04/06 07:27:57;;;;;;;14.57;9.95;;;;;;;;;;4934600;29;20490;-72
2022/04/06 07:30:23;;;;;;;18.02;11.27;;;;;;;;;;4934958;29;20159;-72
2022/04/06 07:32:48;;;;;;;18.42;9.73;;;;;;;;;;4934841;29;20156;-72
2022/04/06 07:35:16;;;;;;;16.58;9.77;;;;;;;;;;4934913;29;20043;-72
2022/04/06 07:37:47;;;;;;;19.70;9.45;;;;;;;;;;4934464;29;20031;-73
2022/04/06 07:40:15;;;;;;;19.20;9.98;;;;;;;;;;4934704;29;20490;-72
2022/04/06 07:42:41;;;;;;;18.10;9.93;;;;;;;;;;4934870;29;20052;-72
2022/04/06 07:45:14;;;;;;;16.23;9.30;;;;;;;;;;4934822;29;20034;-72
2022/04/06 07:47:41;;;;;;;16.23;9.35;;;;;;;;;;4934890;29;20058;-72
2022/04/06 07:50:08;;;;;;;14.88;8.25;;;;;;;;;;4934823;29;20031;-73
2022/04/06 07:52:35;;;;;;;16.83;9.63;;;;;;;;;;4934942;29;20450;-71
2022/04/06 07:55:01;;;;;;;20.85;11.23;;;;;;;;;;4934611;29;20111;-72
2022/04/06 07:57:28;;;;;;;15.45;9.30;;;;;;;;;;4934710;29;20068;-74
2022/04/06 07:59:55;;;;;;;15.60;9.35;;;;;;;;;;4934540;29;20107;-74
2022/04/06 08:02:21;;;;;;;15.20;9.10;;;;;;;;;;4933552;29;20032;-72
2022/04/06 08:04:48;;;;;;;18.65;9.32;;;;;;;;;;4934829;29;21877;-72
2022/04/06 08:07:14;;;;;;;21.08;10.20;;;;;;;;;;4934740;29;20474;-72
2022/04/06 08:09:39;;;;;;;17.83;8.82;;;;;;;;;;4933459;29;20030;-74
2022/04/06 08:12:06;;;;;;;14.98;9.40;;;;;;;;;;4934679;29;20115;-72
2022/04/06 08:14:32;;;;;;;17.38;9.18;;;;;;;;;;4934291;29;20157;-73
2022/04/06 08:16:58;;;;;;;19.63;11.75;;;;;;;;;;4934467;29;20051;-75
2022/04/06 08:19:25;;;;;;;18.30;9.25;;;;;;;;;;4934207;29;20024;-74
2022/04/06 08:21:51;;;;;;;14.23;8.57;;;;;;;;;;4935387;29;20039;-76
2022/04/06 08:24:17;;;;;;;17.75;10.63;;;;;;;;;;4938292;29;20032;-74
2022/04/06 08:26:43;;;;;;;21.30;10.20;;;;;;;;;;4938289;29;20111;-73
2022/04/06 08:29:09;;;;;;;21.50;11.73;;;;;;;;;;4937787;29;20087;-72
2022/04/06 08:31:36;;;;;;;20.10;10.70;;;;;;;;;;4937634;29;20044;-72
2022/04/06 08:34:06;;;;;;;21.77;11.13;;;;;;;;;;4938036;29;20460;-74
2022/04/06 08:36:35;;;;;;;21.77;10.73;;;;;;;;;;4937949;29;20127;-78
2022/04/06 08:39:02;;;;;;;17.95;10.77;;;;;;;;;;4938217;29;20157;-75
2022/04/06 08:41:30;;;;;;;21.17;10.60;;;;;;;;;;4937777;29;20546;-77
2022/04/06 08:43:59;;;;;;;22.85;10.25;;;;;;;;;;4937714;29;20020;-77
2022/04/06 08:46:26;;;;;;;20.02;10.23;;;;;;;;;;4937913;29;20475;-78
2022/04/06 08:48:52;;;;;;;18.88;10.98;;;;;;;;;;4937576;29;20030;-75
2022/04/06 08:51:20;;;;;;;16.67;10.43;;;;;;;;;;4937778;29;20438;-77
2022/04/06 08:53:47;;;;;;;16.13;9.38;;;;;;;;;;4937497;29;20027;-76
2022/04/06 08:56:14;;;;;;;21.27;10.82;;;;;;;;;;4937647;29;20032;-73
2022/04/06 08:58:41;;;;;;;24.58;9.77;;;;;;;;;;4937276;29;20035;-75
2022/04/06 09:01:07;;;;;;;21.80;10.30;;;;;;;;;;4937589;29;20035;-77
2022/04/06 09:03:34;;;;;;;25.23;10.15;;;;;;;;;;4937547;29;20430;-76
2022/04/06 09:06:02;;;;;;;20.67;10.70;;;;;;;;;;4935992;29;20391;-74
2022/04/06 09:08:41;;;;;;;17.38;8.77;;;;;;;;;;4937203;29;20024;-73
2022/04/06 09:11:20;;;;;;;23.90;9.57;;;;;;;;;;4937291;29;20059;-76
2022/04/06 09:13:49;;;;;;;16.88;9.70;;;;;;;;;;4937096;29;20047;-79
2022/04/06 09:16:17;;;;;;;18.15;9.82;;;;;;;;;;4937048;29;20028;-73
2022/04/06 09:18:48;;;;;;;20.50;9.82;;;;;;;;;;4936997;29;20036;-76
2022/04/06 09:21:18;;;;;;;19.92;9.68;;;;;;;;;;4935604;29;20098;-76
2022/04/06 09:23:48;;;;;;;20.58;8.77;;;;;;;;;;4937551;29;20040;-75
2022/04/06 09:26:20;;;;;;;21.77;9.10;;;;;;;;;;4939786;29;20390;-77
2022/04/06 09:28:48;;;;;;;21.83;7.57;;;;;;;;;;4937075;29;20039;-76
2022/04/06 09:31:15;;;;;;;20.90;7.95;;;;;;;;;;4936774;29;20127;-76
2022/04/06 09:33:43;;;;;;;16.92;6.57;;;;;;;;;;4934357;29;20080;-75
2022/04/06 09:36:20;;;;;;;18.95;6.20;;;;;;;;;;4936910;29;20050;-76
2022/04/06 09:38:51;;;;;;;13.88;6.63;;;;;;;;;;4935403;29;20036;-77
2022/04/06 09:41:19;;;;;;;18.60;6.95;;;;;;;;;;4937034;29;20032;-76
2022/04/06 09:43:50;;;;;;;14.50;5.65;;;;;;;;;;4937123;29;20026;-75
2022/04/06 09:49:13;;;;;;;14.52;6.78;;;;;;;;;;4936448;29;20047;-78
2022/04/06 09:51:44;;;;;;;16.92;6.35;;;;;;;;;;4936833;29;20123;-78
2022/04/06 09:54:12;;;;;;;19.15;7.20;;;;;;;;;;4936702;29;20518;-75
2022/04/06 09:56:39;;;;;;;20.92;7.75;;;;;;;;;;4935256;29;20032;-76
2022/04/06 09:59:06;;;;;;;13.98;5.78;;;;;;;;;;4936153;29;20083;-77
2022/04/06 10:01:34;;;;;;;11.98;6.15;;;;;;;;;;4936312;29;20038;-74
2022/04/06 10:04:23;;;;;;;19.63;7.07;;;;;;;;;;4936270;29;20513;-75
2022/04/06 10:06:49;;;;;;;21.73;7.55;;;;;;;;;;4936030;29;20035;-76
2022/04/06 10:09:15;;;;;;;20.17;7.07;;;;;;;;;;4936635;29;20383;-75
2022/04/06 10:11:42;;;;;;;15.07;6.05;;;;;;;;;;4936105;29;20035;-76
2022/04/06 10:14:09;;;;;;;21.17;7.00;;;;;;;;;;4935711;29;20074;-73
2022/04/06 10:16:36;;;;;;;16.25;6.10;;;;;;;;;;4935698;29;20035;-73
2022/04/06 10:19:05;;;;;;;18.25;6.20;;;;;;;;;;4935622;29;20099;-76
2022/04/06 10:21:53;;;;;;;13.13;6.25;;;;;;;;;;4936422;29;20032;-74
2022/04/06 10:24:44;;;;;;;32.47;6.85;;;;;;;;;;4935127;29;20455;-74
2022/04/06 10:27:28;;;;;;;22.75;6.97;;;;;;;;;;4935683;29;20070;-72
2022/04/06 10:30:06;;;;;;;18.35;6.15;;;;;;;;;;4935278;29;20106;-75
2022/04/06 10:32:42;;;;;;;18.30;6.70;;;;;;;;;;4935862;29;20443;-77
2022/04/06 10:35:30;;;;;;;18.75;5.93;;;;;;;;;;4935449;29;20035;-75
2022/04/06 10:37:56;;;;;;;18.67;5.57;;;;;;;;;;4935843;29;20039;-76
2022/04/06 10:40:23;;;;;;;11.27;5.32;;;;;;;;;;4935681;29;20032;-76
2022/04/06 10:42:50;;;;;;;15.65;5.18;;;;;;;;;;4935152;29;20044;-79
2022/04/06 10:45:25;;;;;;;13.02;4.95;;;;;;;;;;4935322;29;20051;-75
2022/04/06 10:48:14;;;;;;;16.20;5.25;;;;;;;;;;4935683;29;20130;-77
2022/04/06 10:50:45;;;;;;;19.27;5.30;;;;;;;;;;4938010;29;20387;-75
2022/04/06 10:53:22;;;;;;;15.05;5.45;;;;;;;;;;4935518;29;20043;-75
2022/04/06 10:55:58;;;;;;;13.82;5.60;;;;;;;;;;4935189;29;20032;-75
2022/04/06 10:58:26;;;;;;;15.85;4.85;;;;;;;;;;4933646;29;20035;-78
2022/04/06 11:01:17;;;;;;;27.85;5.78;;;;;;;;;;4935126;29;20499;-77
2022/04/06 11:04:04;;;;;;;21.77;5.05;;;;;;;;;;4934544;29;20095;-73
2022/04/06 11:06:48;;;;;;;21.90;6.20;;;;;;;;;;4934898;29;20039;-76
2022/04/06 11:12:22;;;;;;;16.33;5.30;;;;;;;;;;4935466;29;20324;-75
2022/04/06 11:14:49;;;;;;;15.77;6.13;;;;;;;;;;4934919;29;20036;-78
2022/04/06 11:17:38;;;;;;;16.85;5.80;;;;;;;;;;4935441;29;20427;-75
2022/04/06 11:20:16;;;;;;;16.60;5.10;;;;;;;;;;4935453;29;20118;-75
2022/04/06 11:22:49;;;;;;;14.18;4.78;;;;;;;;;;4928207;29;20028;-75
2022/04/06 11:25:17;;;;;;;13.55;5.55;;;;;;;;;;4926476;29;20051;-74
2022/04/06 11:27:45;;;;;;;15.48;5.25;;;;;;;;;;4918114;29;20107;-76
2022/04/06 11:30:15;;;;;;;18.10;4.75;;;;;;;;;;4926693;29;20093;-74
2022/04/06 11:32:51;;;;;;;23.35;5.93;;;;;;;;;;4927311;29;20099;-77
2022/04/06 11:35:17;;;;;;;21.88;5.28;;;;;;;;;;4922794;29;20443;-78
2022/04/06 11:37:46;;;;;;;13.00;4.82;;;;;;;;;;4932133;29;20083;-77
2022/04/06 11:40:14;;;;;;;19.05;4.40;;;;;;;;;;4936841;29;20079;-76
2022/04/06 11:42:41;;;;;;;20.58;5.13;;;;;;;;;;4921449;29;20039;-77
2022/04/06 11:45:09;;;;;;;17.63;5.25;;;;;;;;;;4926409;29;20111;-77
2022/04/06 11:47:37;;;;;;;16.30;5.18;;;;;;;;;;4929175;29;20041;-77
2022/04/06 11:50:06;;;;;;;18.85;4.50;;;;;;;;;;4915612;29;20040;-77
2022/04/06 11:52:36;;;;;;;19.85;5.53;;;;;;;;;;4915337;29;20174;-75
2022/04/06 11:55:02;;;;;;;21.17;5.10;;;;;;;;;;4927783;29;20592;-78
2022/04/06 11:57:35;;;;;;;13.45;4.65;;;;;;;;;;4936818;29;20051;-75
2022/04/06 12:00:06;;;;;;;21.58;5.68;;;;;;;;;;4924186;29;20036;-72
2022/04/06 12:02:53;;;;;;;16.92;4.72;;;;;;;;;;4936846;29;20457;-74
2022/04/06 12:05:21;;;;;;;23.10;5.15;;;;;;;;;;4938276;29;20031;-73
2022/04/06 12:07:48;;;;;;;18.27;4.28;;;;;;;;;;4938141;29;20039;-75
2022/04/06 12:10:14;;;;;;;16.48;4.97;;;;;;;;;;4938031;29;20066;-76
2022/04/06 12:12:41;;;;;;;21.40;5.95;;;;;;;;;;4938144;29;20079;-75
2022/04/06 12:15:08;;;;;;;19.08;4.93;;;;;;;;;;4937933;29;20039;-75
2022/04/06 12:17:35;;;;;;;22.75;5.15;;;;;;;;;;4938381;29;20427;-75
2022/04/06 12:20:20;;;;;;;17.35;4.60;;;;;;;;;;4936859;29;20154;-74
2022/04/06 12:22:46;;;;;;;18.02;5.05;;;;;;;;;;4930486;29;20107;-75
2022/04/06 12:25:32;;;;;;;16.27;5.03;;;;;;;;;;4924078;29;20111;-75
2022/04/06 12:28:23;;;;;;;18.83;5.05;;;;;;;;;;4934490;29;20040;-76
2022/04/06 12:31:02;;;;;;;14.50;5.40;;;;;;;;;;4919038;29;20054;-76
2022/04/06 12:33:38;;;;;;;21.55;5.20;;;;;;;;;;4918907;29;20091;-76
2022/04/06 12:36:15;;;;;;;21.77;5.15;;;;;;;;;;4918467;29;20135;-74
2022/04/06 12:39:04;;;;;;;24.75;5.10;;;;;;;;;;4918894;29;20043;-76
2022/04/06 12:41:35;;;;;;;19.73;5.18;;;;;;;;;;4917387;29;20040;-79
2022/04/06 12:44:06;;;;;;;17.35;5.40;;;;;;;;;;4918456;29;20087;-75
2022/04/06 12:46:35;;;;;;;35.00;8.43;;;;;;;;;;4918471;29;20043;-78
2022/04/06 12:49:27;;;;;;;21.33;5.40;;;;;;;;;;4918764;29;20476;-77
2022/04/06 12:52:25;;;;;;;20.83;5.30;;;;;;;;;;4918604;29;20039;-78
2022/04/06 12:55:09;;;;;;;14.52;4.88;;;;;;;;;;4930335;29;20040;-78
2022/04/06 12:57:38;;;;;;;19.05;4.97;;;;;;;;;;4934961;29;20028;-77
2022/04/06 13:00:18;;;;;;;17.70;4.80;;;;;;;;;;4928332;29;20091;-77
2022/04/06 13:02:52;;;;;;;24.58;5.20;;;;;;;;;;4935256;29;20131;-78
2022/04/06 13:05:20;;;;;;;26.75;5.20;;;;;;;;;;4924639;29;20046;-77
2022/04/06 13:07:47;;;;;;;21.33;5.50;;;;;;;;;;4952706;28;20450;-77
2022/04/06 13:10:14;;;;;;;22.58;5.75;;;;;;;;;;4936123;29;20471;-77
2022/04/06 13:12:42;;;;;;;21.38;5.82;;;;;;;;;;4937116;29;20439;-78
2022/04/06 13:15:10;;;;;;;15.77;4.90;;;;;;;;;;4937208;29;20142;-75
2022/04/06 13:17:37;;;;;;;20.55;5.00;;;;;;;;;;4937375;29;20446;-75
2022/04/06 13:20:05;;;;;;;29.42;5.97;;;;;;;;;;4937112;29;20055;-77
2022/04/06 13:22:32;;;;;;;20.80;5.47;;;;;;;;;;4937209;29;20028;-78
2022/04/06 13:24:58;;;;;;;24.45;6.28;;;;;;;;;;4937215;29;20034;-79
2022/04/06 13:27:24;;;;;;;24.67;5.40;;;;;;;;;;4935864;29;20550;-78
2022/04/06 13:29:50;;;;;;;19.67;5.88;;;;;;;;;;4937050;29;20134;-76
2022/04/06 13:32:17;;;;;;;19.15;4.85;;;;;;;;;;4933415;29;20116;-74
2022/04/06 13:34:44;;;;;;;16.35;5.55;;;;;;;;;;4916441;29;20063;-75
2022/04/06 13:37:11;;;;;;;20.35;4.88;;;;;;;;;;4917968;29;20356;-76
2022/04/06 13:39:37;;;;;;;16.83;3.75;;;;;;;;;;4916861;29;20063;-74
2022/04/06 13:42:05;;;;;;;19.08;6.28;;;;;;;;;;4918005;29;20119;-75
2022/04/06 13:44:33;;;;;;;17.70;4.13;;;;;;;;;;4919006;29;20091;-76
2022/04/06 13:46:59;;;;;;;15.82;3.78;;;;;;;;;;4918481;29;20040;-75
2022/04/06 13:49:25;;;;;;;14.93;3.80;;;;;;;;;;4918300;29;20032;-78
2022/04/06 13:51:54;;;;;;;11.65;3.50;;;;;;;;;;4918108;29;20451;-73
2022/04/06 13:54:21;;;;;;;20.92;4.32;;;;;;;;;;4920960;29;20031;-77
2022/04/06 13:56:47;;;;;;;14.38;3.95;;;;;;;;;;4928871;29;20035;-78
2022/04/06 13:59:14;;;;;;;11.43;3.55;;;;;;;;;;4925065;29;20397;-77
2022/04/06 14:01:40;;;;;;;14.35;3.78;;;;;;;;;;4916976;29;20115;-75
2022/04/06 14:04:07;;;;;;;22.08;3.88;;;;;;;;;;4927457;29;20027;-76
2022/04/06 14:06:33;;;;;;;19.58;4.20;;;;;;;;;;4935113;29;20423;-76
2022/04/06 14:09:00;;;;;;;16.73;3.78;;;;;;;;;;4933819;29;20498;-75
2022/04/06 14:11:25;;;;;;;17.40;3.95;;;;;;;;;;4933432;29;20031;-77
2022/04/06 14:13:52;;;;;;;15.68;3.97;;;;;;;;;;4933992;29;20479;-78
2022/04/06 14:16:18;;;;;;;13.02;3.92;;;;;;;;;;4933911;29;20034;-77
2022/04/06 14:18:45;;;;;;;13.20;4.43;;;;;;;;;;4935750;29;20506;-73
2022/04/06 14:21:12;;;;;;;15.52;4.03;;;;;;;;;;4933766;29;20435;-76
2022/04/06 14:23:40;;;;;;;20.08;3.85;;;;;;;;;;4935575;29;20044;-75
2022/04/06 14:26:08;;;;;;;12.43;3.70;;;;;;;;;;4935639;29;20024;-76
2022/04/06 14:28:35;;;;;;;19.00;3.90;;;;;;;;;;4935419;29;20055;-76
2022/04/06 14:31:01;;;;;;;11.70;3.45;;;;;;;;;;4934409;29;20502;-76
2022/04/06 14:33:27;;;;;;;13.23;3.35;;;;;;;;;;4935917;29;20119;-78
2022/04/06 14:35:53;;;;;;;12.35;2.97;;;;;;;;;;4936028;29;20494;-75
2022/04/06 14:38:19;;;;;;;17.00;3.65;;;;;;;;;;4935999;29;20484;-76
2022/04/06 14:40:48;;;;;;;19.40;3.50;;;;;;;;;;4934409;29;20035;-74